sensor_id;sensor_type;location;lat;lon;timestamp;P1;durP1;ratioP1;P2;durP2;ratioP2
11970;SDS011;6045;42.682;23.294;2023-12-20T00:01:58;86.30;;;42.13;;
11970;SDS011;6045;42.682;23.294;2023-12-20T00:04:25;82.50;;;42.17;;
11970;SDS011;6045;42.682;23.294;2023-12-20T00:06:52;81.77;;;41.60;;
11970;SDS011;6045;42.682;23.294;2023-12-20T00:09:19;68.87;;;38.53;;
11970;SDS011;6045;42.682;23.294;2023-12-20T00:11:46;73.57;;;38.83;;
11970;SDS011;6045;42.682;23.294;2023-12-20T00:14:14;78.40;;;39.07;;
11970;SDS011;6045;42.682;23.294;2023-12-20T00:16:41;77.23;;;38.80;;
11970;SDS011;6045;42.682;23.294;2023-12-20T00:19:08;71.83;;;38.07;;
11970;SDS011;6045;42.682;23.294;2023-12-20T00:21:35;75.03;;;39.17;;
11970;SDS011;6045;42.682;23.294;2023-12-20T00:24:02;74.50;;;39.87;;
11970;SDS011;6045;42.682;23.294;2023-12-20T00:26:29;71.13;;;37.97;;
11970;SDS011;6045;42.682;23.294;2023-12-20T00:28:56;71.70;;;38.20;;
11970;SDS011;6045;42.682;23.294;2023-12-20T00:31:24;84.67;;;39.87;;
11970;SDS011;6045;42.682;23.294;2023-12-20T00:33:51;77.67;;;37.67;;
11970;SDS011;6045;42.682;23.294;2023-12-20T00:36:18;79.37;;;40.33;;
11970;SDS011;6045;42.682;23.294;2023-12-20T00:38:45;81.57;;;40.00;;
11970;SDS011;6045;42.682;23.294;2023-12-20T00:41:12;68.70;;;35.73;;
11970;SDS011;6045;42.682;23.294;2023-12-20T00:43:39;66.03;;;37.40;;
11970;SDS011;6045;42.682;23.294;2023-12-20T00:46:06;67.27;;;37.50;;
11970;SDS011;6045;42.682;23.294;2023-12-20T00:48:34;70.53;;;39.20;;
11970;SDS011;6045;42.682;23.294;2023-12-20T00:51:01;72.47;;;39.13;;
11970;SDS011;6045;42.682;23.294;2023-12-20T00:53:28;78.33;;;40.17;;
11970;SDS011;6045;42.682;23.294;2023-12-20T00:55:55;67.57;;;37.13;;
11970;SDS011;6045;42.682;23.294;2023-12-20T00:58:23;74.30;;;37.30;;
11970;SDS011;6045;42.682;23.294;2023-12-20T01:00:51;75.10;;;37.53;;
11970;SDS011;6045;42.682;23.294;2023-12-20T01:03:18;69.37;;;37.40;;
11970;SDS011;6045;42.682;23.294;2023-12-20T01:05:47;69.53;;;37.20;;
11970;SDS011;6045;42.682;23.294;2023-12-20T01:08:14;64.27;;;35.33;;
11970;SDS011;6045;42.682;23.294;2023-12-20T01:10:41;76.83;;;38.30;;
11970;SDS011;6045;42.682;23.294;2023-12-20T01:13:08;62.93;;;35.27;;
11970;SDS011;6045;42.682;23.294;2023-12-20T01:15:35;65.90;;;35.57;;
11970;SDS011;6045;42.682;23.294;2023-12-20T01:18:02;67.27;;;37.47;;
11970;SDS011;6045;42.682;23.294;2023-12-20T01:20:34;74.07;;;40.63;;
11970;SDS011;6045;42.682;23.294;2023-12-20T01:23:03;67.70;;;36.20;;
11970;SDS011;6045;42.682;23.294;2023-12-20T01:25:30;69.53;;;38.30;;
11970;SDS011;6045;42.682;23.294;2023-12-20T01:27:57;69.70;;;38.57;;
11970;SDS011;6045;42.682;23.294;2023-12-20T01:30:24;77.77;;;40.40;;
11970;SDS011;6045;42.682;23.294;2023-12-20T01:32:50;81.63;;;39.07;;
11970;SDS011;6045;42.682;23.294;2023-12-20T01:35:17;69.60;;;39.70;;
11970;SDS011;6045;42.682;23.294;2023-12-20T01:37:44;75.87;;;41.20;;
11970;SDS011;6045;42.682;23.294;2023-12-20T01:40:13;79.50;;;41.47;;
11970;SDS011;6045;42.682;23.294;2023-12-20T01:42:40;84.20;;;41.43;;
11970;SDS011;6045;42.682;23.294;2023-12-20T01:45:07;76.93;;;40.47;;
11970;SDS011;6045;42.682;23.294;2023-12-20T01:47:35;87.83;;;43.73;;
11970;SDS011;6045;42.682;23.294;2023-12-20T01:50:02;80.83;;;44.20;;
11970;SDS011;6045;42.682;23.294;2023-12-20T01:52:33;80.57;;;45.73;;
11970;SDS011;6045;42.682;23.294;2023-12-20T01:55:01;78.27;;;40.97;;
11970;SDS011;6045;42.682;23.294;2023-12-20T01:57:33;79.10;;;42.27;;
11970;SDS011;6045;42.682;23.294;2023-12-20T02:00:00;72.53;;;41.93;;
11970;SDS011;6045;42.682;23.294;2023-12-20T02:02:28;84.47;;;43.23;;
11970;SDS011;6045;42.682;23.294;2023-12-20T02:04:56;90.00;;;41.93;;
11970;SDS011;6045;42.682;23.294;2023-12-20T02:07:23;85.77;;;46.73;;
11970;SDS011;6045;42.682;23.294;2023-12-20T02:09:50;88.73;;;47.03;;
11970;SDS011;6045;42.682;23.294;2023-12-20T02:12:17;85.90;;;44.13;;
11970;SDS011;6045;42.682;23.294;2023-12-20T02:14:46;94.70;;;47.20;;
11970;SDS011;6045;42.682;23.294;2023-12-20T02:17:13;90.87;;;46.70;;
11970;SDS011;6045;42.682;23.294;2023-12-20T02:19:40;86.03;;;45.73;;
11970;SDS011;6045;42.682;23.294;2023-12-20T02:22:09;87.93;;;44.77;;
11970;SDS011;6045;42.682;23.294;2023-12-20T02:24:36;76.37;;;42.93;;
11970;SDS011;6045;42.682;23.294;2023-12-20T02:27:04;84.07;;;44.33;;
11970;SDS011;6045;42.682;23.294;2023-12-20T02:29:32;75.67;;;44.97;;
11970;SDS011;6045;42.682;23.294;2023-12-20T02:32:00;88.80;;;46.27;;
11970;SDS011;6045;42.682;23.294;2023-12-20T02:34:27;82.00;;;44.27;;
11970;SDS011;6045;42.682;23.294;2023-12-20T02:36:53;89.00;;;44.47;;
11970;SDS011;6045;42.682;23.294;2023-12-20T02:39:22;90.10;;;44.27;;
11970;SDS011;6045;42.682;23.294;2023-12-20T02:41:49;86.73;;;44.37;;
11970;SDS011;6045;42.682;23.294;2023-12-20T02:44:16;80.27;;;43.43;;
11970;SDS011;6045;42.682;23.294;2023-12-20T02:46:43;89.73;;;43.90;;
11970;SDS011;6045;42.682;23.294;2023-12-20T02:49:10;85.50;;;45.17;;
11970;SDS011;6045;42.682;23.294;2023-12-20T02:51:37;82.03;;;45.33;;
11970;SDS011;6045;42.682;23.294;2023-12-20T02:54:04;82.97;;;44.50;;
11970;SDS011;6045;42.682;23.294;2023-12-20T02:56:33;80.77;;;42.80;;
11970;SDS011;6045;42.682;23.294;2023-12-20T02:59:00;89.00;;;45.13;;
11970;SDS011;6045;42.682;23.294;2023-12-20T03:01:27;83.13;;;43.20;;
11970;SDS011;6045;42.682;23.294;2023-12-20T03:03:55;77.43;;;43.90;;
11970;SDS011;6045;42.682;23.294;2023-12-20T03:06:21;84.63;;;43.73;;
11970;SDS011;6045;42.682;23.294;2023-12-20T03:08:48;81.90;;;45.27;;
11970;SDS011;6045;42.682;23.294;2023-12-20T03:11:15;72.90;;;42.90;;
11970;SDS011;6045;42.682;23.294;2023-12-20T03:13:44;73.67;;;40.20;;
11970;SDS011;6045;42.682;23.294;2023-12-20T03:16:11;81.33;;;43.40;;
11970;SDS011;6045;42.682;23.294;2023-12-20T03:18:40;71.97;;;38.80;;
11970;SDS011;6045;42.682;23.294;2023-12-20T03:21:07;77.80;;;40.20;;
11970;SDS011;6045;42.682;23.294;2023-12-20T03:23:33;80.23;;;40.90;;
11970;SDS011;6045;42.682;23.294;2023-12-20T03:26:00;75.60;;;38.77;;
11970;SDS011;6045;42.682;23.294;2023-12-20T03:28:29;74.17;;;39.43;;
11970;SDS011;6045;42.682;23.294;2023-12-20T03:30:57;67.00;;;36.63;;
11970;SDS011;6045;42.682;23.294;2023-12-20T03:33:24;66.83;;;34.57;;
11970;SDS011;6045;42.682;23.294;2023-12-20T03:35:51;65.47;;;35.53;;
11970;SDS011;6045;42.682;23.294;2023-12-20T03:38:18;65.50;;;34.63;;
11970;SDS011;6045;42.682;23.294;2023-12-20T03:40:45;63.93;;;32.80;;
11970;SDS011;6045;42.682;23.294;2023-12-20T03:43:12;59.87;;;31.47;;
11970;SDS011;6045;42.682;23.294;2023-12-20T03:45:39;57.53;;;30.93;;
11970;SDS011;6045;42.682;23.294;2023-12-20T03:48:07;54.43;;;28.63;;
11970;SDS011;6045;42.682;23.294;2023-12-20T03:50:35;49.17;;;27.57;;
11970;SDS011;6045;42.682;23.294;2023-12-20T03:53:02;43.93;;;25.47;;
11970;SDS011;6045;42.682;23.294;2023-12-20T03:55:29;51.37;;;26.33;;
11970;SDS011;6045;42.682;23.294;2023-12-20T03:57:56;50.83;;;26.40;;
11970;SDS011;6045;42.682;23.294;2023-12-20T04:00:23;53.73;;;27.33;;
11970;SDS011;6045;42.682;23.294;2023-12-20T04:02:50;50.73;;;25.53;;
11970;SDS011;6045;42.682;23.294;2023-12-20T04:05:19;59.67;;;27.37;;
11970;SDS011;6045;42.682;23.294;2023-12-20T04:07:46;52.10;;;26.80;;
11970;SDS011;6045;42.682;23.294;2023-12-20T04:10:13;59.73;;;26.40;;
11970;SDS011;6045;42.682;23.294;2023-12-20T04:12:40;57.20;;;27.20;;
11970;SDS011;6045;42.682;23.294;2023-12-20T04:15:07;61.37;;;25.73;;
11970;SDS011;6045;42.682;23.294;2023-12-20T04:17:37;44.60;;;23.40;;
11970;SDS011;6045;42.682;23.294;2023-12-20T04:20:04;50.50;;;25.23;;
11970;SDS011;6045;42.682;23.294;2023-12-20T04:22:33;48.47;;;28.30;;
11970;SDS011;6045;42.682;23.294;2023-12-20T04:25:00;54.03;;;28.73;;
11970;SDS011;6045;42.682;23.294;2023-12-20T04:27:27;52.97;;;28.90;;
11970;SDS011;6045;42.682;23.294;2023-12-20T04:29:54;59.67;;;28.00;;
11970;SDS011;6045;42.682;23.294;2023-12-20T04:32:21;63.10;;;33.63;;
11970;SDS011;6045;42.682;23.294;2023-12-20T04:34:47;64.83;;;32.80;;
11970;SDS011;6045;42.682;23.294;2023-12-20T04:37:14;72.33;;;35.23;;
11970;SDS011;6045;42.682;23.294;2023-12-20T04:39:43;62.93;;;33.63;;
11970;SDS011;6045;42.682;23.294;2023-12-20T04:42:10;57.33;;;32.87;;
11970;SDS011;6045;42.682;23.294;2023-12-20T04:44:37;62.87;;;32.13;;
11970;SDS011;6045;42.682;23.294;2023-12-20T04:47:04;61.83;;;30.60;;
11970;SDS011;6045;42.682;23.294;2023-12-20T04:49:31;63.53;;;32.63;;
11970;SDS011;6045;42.682;23.294;2023-12-20T04:51:57;65.97;;;32.83;;
11970;SDS011;6045;42.682;23.294;2023-12-20T04:54:24;51.60;;;27.77;;
11970;SDS011;6045;42.682;23.294;2023-12-20T04:56:53;55.13;;;29.23;;
11970;SDS011;6045;42.682;23.294;2023-12-20T04:59:20;55.33;;;28.63;;
11970;SDS011;6045;42.682;23.294;2023-12-20T05:01:46;53.27;;;26.13;;
11970;SDS011;6045;42.682;23.294;2023-12-20T05:04:13;44.10;;;23.97;;
11970;SDS011;6045;42.682;23.294;2023-12-20T05:06:40;47.83;;;23.83;;
11970;SDS011;6045;42.682;23.294;2023-12-20T05:09:07;44.03;;;23.53;;
11970;SDS011;6045;42.682;23.294;2023-12-20T05:11:34;47.87;;;23.60;;
11970;SDS011;6045;42.682;23.294;2023-12-20T05:14:03;52.20;;;24.37;;
11970;SDS011;6045;42.682;23.294;2023-12-20T05:16:30;54.53;;;24.63;;
11970;SDS011;6045;42.682;23.294;2023-12-20T05:18:57;48.07;;;22.30;;
11970;SDS011;6045;42.682;23.294;2023-12-20T05:21:26;56.77;;;25.90;;
11970;SDS011;6045;42.682;23.294;2023-12-20T05:23:52;56.47;;;26.93;;
11970;SDS011;6045;42.682;23.294;2023-12-20T05:26:19;55.83;;;28.17;;
11970;SDS011;6045;42.682;23.294;2023-12-20T05:28:46;72.43;;;31.90;;
11970;SDS011;6045;42.682;23.294;2023-12-20T05:31:15;62.47;;;30.43;;
11970;SDS011;6045;42.682;23.294;2023-12-20T05:33:45;59.17;;;28.77;;
11970;SDS011;6045;42.682;23.294;2023-12-20T05:36:12;68.57;;;30.47;;
11970;SDS011;6045;42.682;23.294;2023-12-20T05:38:40;54.73;;;29.50;;
11970;SDS011;6045;42.682;23.294;2023-12-20T05:41:07;66.57;;;30.67;;
11970;SDS011;6045;42.682;23.294;2023-12-20T05:43:37;61.37;;;28.33;;
11970;SDS011;6045;42.682;23.294;2023-12-20T05:46:06;59.70;;;32.30;;
11970;SDS011;6045;42.682;23.294;2023-12-20T05:48:34;61.70;;;31.63;;
11970;SDS011;6045;42.682;23.294;2023-12-20T05:51:01;65.80;;;29.73;;
11970;SDS011;6045;42.682;23.294;2023-12-20T05:53:28;71.97;;;31.67;;
11970;SDS011;6045;42.682;23.294;2023-12-20T05:55:55;65.73;;;32.57;;
11970;SDS011;6045;42.682;23.294;2023-12-20T05:58:22;74.07;;;32.27;;
11970;SDS011;6045;42.682;23.294;2023-12-20T06:00:49;75.73;;;33.10;;
11970;SDS011;6045;42.682;23.294;2023-12-20T06:03:16;61.33;;;29.87;;
11970;SDS011;6045;42.682;23.294;2023-12-20T06:05:44;74.63;;;35.00;;
11970;SDS011;6045;42.682;23.294;2023-12-20T06:08:11;61.00;;;31.57;;
11970;SDS011;6045;42.682;23.294;2023-12-20T06:10:40;63.47;;;30.93;;
11970;SDS011;6045;42.682;23.294;2023-12-20T06:13:07;61.67;;;29.33;;
11970;SDS011;6045;42.682;23.294;2023-12-20T06:15:34;69.20;;;30.07;;
11970;SDS011;6045;42.682;23.294;2023-12-20T06:18:05;70.60;;;31.70;;
11970;SDS011;6045;42.682;23.294;2023-12-20T06:20:32;70.93;;;29.67;;
11970;SDS011;6045;42.682;23.294;2023-12-20T06:23:00;71.37;;;32.10;;
11970;SDS011;6045;42.682;23.294;2023-12-20T06:25:27;78.33;;;32.07;;
11970;SDS011;6045;42.682;23.294;2023-12-20T06:27:54;64.13;;;29.47;;
11970;SDS011;6045;42.682;23.294;2023-12-20T06:30:21;66.70;;;29.63;;
11970;SDS011;6045;42.682;23.294;2023-12-20T06:32:50;62.80;;;29.17;;
11970;SDS011;6045;42.682;23.294;2023-12-20T06:35:23;68.27;;;31.10;;
11970;SDS011;6045;42.682;23.294;2023-12-20T06:37:50;74.50;;;30.87;;
11970;SDS011;6045;42.682;23.294;2023-12-20T06:40:20;65.33;;;29.93;;
11970;SDS011;6045;42.682;23.294;2023-12-20T06:42:47;57.77;;;30.20;;
11970;SDS011;6045;42.682;23.294;2023-12-20T06:45:16;71.00;;;31.57;;
11970;SDS011;6045;42.682;23.294;2023-12-20T06:47:43;61.13;;;30.33;;
11970;SDS011;6045;42.682;23.294;2023-12-20T06:50:10;62.03;;;28.43;;
11970;SDS011;6045;42.682;23.294;2023-12-20T06:52:37;72.97;;;34.23;;
11970;SDS011;6045;42.682;23.294;2023-12-20T06:55:04;58.07;;;30.23;;
11970;SDS011;6045;42.682;23.294;2023-12-20T06:57:33;70.03;;;31.33;;
11970;SDS011;6045;42.682;23.294;2023-12-20T07:00:01;75.90;;;29.83;;
11970;SDS011;6045;42.682;23.294;2023-12-20T07:02:28;73.10;;;31.07;;
11970;SDS011;6045;42.682;23.294;2023-12-20T07:04:56;64.60;;;29.60;;
11970;SDS011;6045;42.682;23.294;2023-12-20T07:07:23;64.97;;;28.27;;
11970;SDS011;6045;42.682;23.294;2023-12-20T08:10:45;84.13;;;37.07;;
11970;SDS011;6045;42.682;23.294;2023-12-20T08:13:11;91.77;;;36.60;;
11970;SDS011;6045;42.682;23.294;2023-12-20T08:15:39;80.67;;;37.80;;
11970;SDS011;6045;42.682;23.294;2023-12-20T08:18:23;89.40;;;38.17;;
11970;SDS011;6045;42.682;23.294;2023-12-20T08:20:51;92.87;;;40.10;;
11970;SDS011;6045;42.682;23.294;2023-12-20T08:23:19;93.87;;;37.27;;
11970;SDS011;6045;42.682;23.294;2023-12-20T08:25:46;85.93;;;40.27;;
11970;SDS011;6045;42.682;23.294;2023-12-20T08:28:14;96.43;;;42.50;;
11970;SDS011;6045;42.682;23.294;2023-12-20T08:30:44;81.70;;;36.60;;
11970;SDS011;6045;42.682;23.294;2023-12-20T08:33:11;89.93;;;40.33;;
11970;SDS011;6045;42.682;23.294;2023-12-20T08:35:38;109.50;;;45.90;;
11970;SDS011;6045;42.682;23.294;2023-12-20T08:38:07;150.73;;;59.37;;
11970;SDS011;6045;42.682;23.294;2023-12-20T08:40:34;110.33;;;45.27;;
11970;SDS011;6045;42.682;23.294;2023-12-20T08:43:01;103.60;;;42.80;;
11970;SDS011;6045;42.682;23.294;2023-12-20T08:45:28;97.30;;;42.17;;
11970;SDS011;6045;42.682;23.294;2023-12-20T08:47:55;96.60;;;39.30;;
11970;SDS011;6045;42.682;23.294;2023-12-20T08:50:22;99.33;;;42.33;;
11970;SDS011;6045;42.682;23.294;2023-12-20T08:52:50;108.57;;;41.67;;
11970;SDS011;6045;42.682;23.294;2023-12-20T08:55:18;97.77;;;43.57;;
11970;SDS011;6045;42.682;23.294;2023-12-20T08:57:46;103.77;;;43.27;;
11970;SDS011;6045;42.682;23.294;2023-12-20T09:00:16;94.33;;;41.23;;
11970;SDS011;6045;42.682;23.294;2023-12-20T09:02:45;108.53;;;42.47;;
11970;SDS011;6045;42.682;23.294;2023-12-20T09:05:12;110.07;;;42.77;;
11970;SDS011;6045;42.682;23.294;2023-12-20T09:07:39;112.67;;;44.47;;
11970;SDS011;6045;42.682;23.294;2023-12-20T09:10:06;104.23;;;42.10;;
11970;SDS011;6045;42.682;23.294;2023-12-20T09:12:35;111.70;;;44.43;;
11970;SDS011;6045;42.682;23.294;2023-12-20T09:15:05;118.50;;;45.10;;
11970;SDS011;6045;42.682;23.294;2023-12-20T09:17:32;112.80;;;44.17;;
11970;SDS011;6045;42.682;23.294;2023-12-20T09:19:59;115.33;;;46.63;;
11970;SDS011;6045;42.682;23.294;2023-12-20T09:22:26;98.20;;;43.97;;
11970;SDS011;6045;42.682;23.294;2023-12-20T09:24:53;107.07;;;44.03;;
11970;SDS011;6045;42.682;23.294;2023-12-20T09:27:21;104.23;;;46.37;;
11970;SDS011;6045;42.682;23.294;2023-12-20T09:29:51;100.33;;;45.57;;
11970;SDS011;6045;42.682;23.294;2023-12-20T09:32:18;111.13;;;46.47;;
11970;SDS011;6045;42.682;23.294;2023-12-20T09:34:45;112.67;;;44.77;;
11970;SDS011;6045;42.682;23.294;2023-12-20T09:37:13;108.87;;;45.97;;
11970;SDS011;6045;42.682;23.294;2023-12-20T09:39:40;108.97;;;47.00;;
11970;SDS011;6045;42.682;23.294;2023-12-20T09:42:11;96.27;;;43.83;;
11970;SDS011;6045;42.682;23.294;2023-12-20T09:44:40;107.60;;;46.10;;
11970;SDS011;6045;42.682;23.294;2023-12-20T09:47:10;111.83;;;48.43;;
11970;SDS011;6045;42.682;23.294;2023-12-20T09:49:38;112.53;;;48.57;;
11970;SDS011;6045;42.682;23.294;2023-12-20T09:52:08;103.37;;;46.77;;
11970;SDS011;6045;42.682;23.294;2023-12-20T09:54:37;116.90;;;49.23;;
11970;SDS011;6045;42.682;23.294;2023-12-20T09:57:04;111.10;;;48.17;;
11970;SDS011;6045;42.682;23.294;2023-12-20T09:59:31;113.30;;;49.33;;
11970;SDS011;6045;42.682;23.294;2023-12-20T10:02:02;121.67;;;53.40;;
11970;SDS011;6045;42.682;23.294;2023-12-20T10:04:47;119.67;;;53.03;;
11970;SDS011;6045;42.682;23.294;2023-12-20T10:07:15;103.70;;;48.83;;
11970;SDS011;6045;42.682;23.294;2023-12-20T10:09:45;111.10;;;50.57;;
11970;SDS011;6045;42.682;23.294;2023-12-20T10:16:13;96.63;;;48.73;;
11970;SDS011;6045;42.682;23.294;2023-12-20T10:18:37;94.40;;;50.17;;
11970;SDS011;6045;42.682;23.294;2023-12-20T10:21:11;86.00;;;46.90;;
11970;SDS011;6045;42.682;23.294;2023-12-20T10:23:40;97.47;;;53.57;;
11970;SDS011;6045;42.682;23.294;2023-12-20T10:26:08;91.70;;;49.73;;
11970;SDS011;6045;42.682;23.294;2023-12-20T10:28:35;98.53;;;51.37;;
11970;SDS011;6045;42.682;23.294;2023-12-20T10:31:02;89.77;;;48.07;;
11970;SDS011;6045;42.682;23.294;2023-12-20T10:33:30;95.47;;;50.50;;
11970;SDS011;6045;42.682;23.294;2023-12-20T10:35:59;91.30;;;49.77;;
11970;SDS011;6045;42.682;23.294;2023-12-20T10:38:45;90.77;;;49.47;;
11970;SDS011;6045;42.682;23.294;2023-12-20T10:41:15;97.50;;;51.17;;
11970;SDS011;6045;42.682;23.294;2023-12-20T10:43:47;104.87;;;52.73;;
11970;SDS011;6045;42.682;23.294;2023-12-20T10:46:13;104.03;;;52.43;;
11970;SDS011;6045;42.682;23.294;2023-12-20T10:48:42;100.13;;;53.43;;
11970;SDS011;6045;42.682;23.294;2023-12-20T10:51:10;97.43;;;51.87;;
11970;SDS011;6045;42.682;23.294;2023-12-20T10:53:37;97.93;;;53.13;;
11970;SDS011;6045;42.682;23.294;2023-12-20T10:56:07;97.87;;;53.23;;
11970;SDS011;6045;42.682;23.294;2023-12-20T10:58:40;106.33;;;52.67;;
11970;SDS011;6045;42.682;23.294;2023-12-20T11:01:09;99.50;;;52.87;;
11970;SDS011;6045;42.682;23.294;2023-12-20T11:03:39;99.33;;;51.60;;
11970;SDS011;6045;42.682;23.294;2023-12-20T11:06:13;98.60;;;51.83;;
11970;SDS011;6045;42.682;23.294;2023-12-20T11:08:53;102.23;;;52.30;;
11970;SDS011;6045;42.682;23.294;2023-12-20T11:11:35;105.37;;;52.93;;
11970;SDS011;6045;42.682;23.294;2023-12-20T11:14:13;106.87;;;54.60;;
11970;SDS011;6045;42.682;23.294;2023-12-20T11:16:43;114.67;;;57.37;;
11970;SDS011;6045;42.682;23.294;2023-12-20T11:19:11;124.43;;;54.87;;
11970;SDS011;6045;42.682;23.294;2023-12-20T11:21:40;128.47;;;57.33;;
11970;SDS011;6045;42.682;23.294;2023-12-20T11:24:07;109.80;;;56.00;;
11970;SDS011;6045;42.682;23.294;2023-12-20T11:26:37;127.57;;;62.90;;
11970;SDS011;6045;42.682;23.294;2023-12-20T11:31:56;109.30;;;56.17;;
11970;SDS011;6045;42.682;23.294;2023-12-20T11:34:26;113.87;;;59.87;;
11970;SDS011;6045;42.682;23.294;2023-12-20T11:36:56;116.90;;;57.30;;
11970;SDS011;6045;42.682;23.294;2023-12-20T11:39:24;110.17;;;56.57;;
11970;SDS011;6045;42.682;23.294;2023-12-20T11:41:53;114.23;;;57.67;;
11970;SDS011;6045;42.682;23.294;2023-12-20T11:44:21;111.00;;;55.33;;
11970;SDS011;6045;42.682;23.294;2023-12-20T11:46:48;107.93;;;55.07;;
11970;SDS011;6045;42.682;23.294;2023-12-20T11:49:15;113.65;;;55.90;;
11970;SDS011;6045;42.682;23.294;2023-12-20T11:51:42;106.15;;;56.13;;
11970;SDS011;6045;42.682;23.294;2023-12-20T11:54:10;99.93;;;53.65;;
11970;SDS011;6045;42.682;23.294;2023-12-20T11:56:37;97.55;;;52.25;;
11970;SDS011;6045;42.682;23.294;2023-12-20T11:59:05;99.95;;;49.92;;
11970;SDS011;6045;42.682;23.294;2023-12-20T12:01:36;86.85;;;46.15;;
11970;SDS011;6045;42.682;23.294;2023-12-20T12:04:03;84.93;;;45.60;;
11970;SDS011;6045;42.682;23.294;2023-12-20T12:06:30;82.45;;;44.35;;
11970;SDS011;6045;42.682;23.294;2023-12-20T12:08:57;74.55;;;41.33;;
11970;SDS011;6045;42.682;23.294;2023-12-20T12:11:24;72.03;;;42.42;;
11970;SDS011;6045;42.682;23.294;2023-12-20T12:13:51;77.05;;;45.50;;
11970;SDS011;6045;42.682;23.294;2023-12-20T12:16:20;75.28;;;40.88;;
11970;SDS011;6045;42.682;23.294;2023-12-20T12:18:54;77.95;;;41.35;;
11970;SDS011;6045;42.682;23.294;2023-12-20T12:21:22;77.88;;;42.63;;
11970;SDS011;6045;42.682;23.294;2023-12-20T12:23:49;75.13;;;39.85;;
11970;SDS011;6045;42.682;23.294;2023-12-20T12:26:16;76.35;;;44.15;;
11970;SDS011;6045;42.682;23.294;2023-12-20T12:28:43;84.50;;;45.83;;
11970;SDS011;6045;42.682;23.294;2023-12-20T12:31:13;85.20;;;45.83;;
11970;SDS011;6045;42.682;23.294;2023-12-20T12:33:42;86.75;;;45.85;;
11970;SDS011;6045;42.682;23.294;2023-12-20T12:36:10;90.35;;;44.97;;
11970;SDS011;6045;42.682;23.294;2023-12-20T12:38:37;82.00;;;44.22;;
11970;SDS011;6045;42.682;23.294;2023-12-20T12:41:04;76.47;;;45.00;;
11970;SDS011;6045;42.682;23.294;2023-12-20T12:43:32;90.53;;;47.88;;
11970;SDS011;6045;42.682;23.294;2023-12-20T12:46:00;94.80;;;49.65;;
11970;SDS011;6045;42.682;23.294;2023-12-20T12:48:27;95.05;;;48.15;;
11970;SDS011;6045;42.682;23.294;2023-12-20T12:50:56;91.93;;;47.92;;
11970;SDS011;6045;42.682;23.294;2023-12-20T12:53:24;95.73;;;48.07;;
11970;SDS011;6045;42.682;23.294;2023-12-20T12:55:53;88.47;;;45.77;;
11970;SDS011;6045;42.682;23.294;2023-12-20T12:58:20;93.80;;;48.30;;
11970;SDS011;6045;42.682;23.294;2023-12-20T13:00:50;93.03;;;47.57;;
11970;SDS011;6045;42.682;23.294;2023-12-20T13:03:17;87.17;;;45.40;;
11970;SDS011;6045;42.682;23.294;2023-12-20T13:05:44;87.60;;;46.90;;
11970;SDS011;6045;42.682;23.294;2023-12-20T13:08:13;93.03;;;47.67;;
11970;SDS011;6045;42.682;23.294;2023-12-20T13:10:41;91.20;;;46.93;;
11970;SDS011;6045;42.682;23.294;2023-12-20T13:13:08;91.73;;;46.37;;
11970;SDS011;6045;42.682;23.294;2023-12-20T13:15:34;87.43;;;46.13;;
11970;SDS011;6045;42.682;23.294;2023-12-20T13:18:01;93.33;;;46.37;;
11970;SDS011;6045;42.682;23.294;2023-12-20T13:20:29;92.97;;;47.13;;
11970;SDS011;6045;42.682;23.294;2023-12-20T13:22:56;104.37;;;47.57;;
11970;SDS011;6045;42.682;23.294;2023-12-20T13:25:25;96.67;;;46.10;;
11970;SDS011;6045;42.682;23.294;2023-12-20T13:27:52;86.00;;;44.63;;
11970;SDS011;6045;42.682;23.294;2023-12-20T13:30:19;102.77;;;45.37;;
11970;SDS011;6045;42.682;23.294;2023-12-20T13:32:47;92.37;;;44.03;;
11970;SDS011;6045;42.682;23.294;2023-12-20T13:35:14;89.83;;;45.07;;
11970;SDS011;6045;42.682;23.294;2023-12-20T13:37:41;93.87;;;43.37;;
11970;SDS011;6045;42.682;23.294;2023-12-20T13:40:09;91.00;;;42.73;;
11970;SDS011;6045;42.682;23.294;2023-12-20T13:42:39;91.23;;;45.40;;
11970;SDS011;6045;42.682;23.294;2023-12-20T13:45:07;91.50;;;45.60;;
11970;SDS011;6045;42.682;23.294;2023-12-20T13:47:35;90.73;;;44.27;;
11970;SDS011;6045;42.682;23.294;2023-12-20T13:50:02;93.17;;;44.60;;
11970;SDS011;6045;42.682;23.294;2023-12-20T13:52:29;94.07;;;43.07;;
11970;SDS011;6045;42.682;23.294;2023-12-20T13:54:56;98.80;;;43.73;;
11970;SDS011;6045;42.682;23.294;2023-12-20T13:57:23;91.47;;;42.73;;
11970;SDS011;6045;42.682;23.294;2023-12-20T13:59:51;95.77;;;43.87;;
11970;SDS011;6045;42.682;23.294;2023-12-20T14:02:19;89.27;;;42.57;;
11970;SDS011;6045;42.682;23.294;2023-12-20T14:04:46;90.97;;;41.07;;
11970;SDS011;6045;42.682;23.294;2023-12-20T14:07:13;93.00;;;40.87;;
11970;SDS011;6045;42.682;23.294;2023-12-20T14:09:40;98.60;;;42.23;;
11970;SDS011;6045;42.682;23.294;2023-12-20T14:12:10;86.33;;;40.40;;
11970;SDS011;6045;42.682;23.294;2023-12-20T14:14:37;87.00;;;39.87;;
11970;SDS011;6045;42.682;23.294;2023-12-20T14:17:06;90.97;;;42.10;;
11970;SDS011;6045;42.682;23.294;2023-12-20T14:19:33;93.47;;;42.77;;
11970;SDS011;6045;42.682;23.294;2023-12-20T14:22:00;88.00;;;41.87;;
11970;SDS011;6045;42.682;23.294;2023-12-20T14:24:28;92.07;;;43.30;;
11970;SDS011;6045;42.682;23.294;2023-12-20T14:26:55;92.07;;;41.67;;
11970;SDS011;6045;42.682;23.294;2023-12-20T14:29:23;99.77;;;44.00;;
11970;SDS011;6045;42.682;23.294;2023-12-20T14:31:50;97.93;;;42.73;;
11970;SDS011;6045;42.682;23.294;2023-12-20T14:34:19;103.23;;;41.23;;
11970;SDS011;6045;42.682;23.294;2023-12-20T14:36:46;107.50;;;43.97;;
11970;SDS011;6045;42.682;23.294;2023-12-20T14:39:12;95.27;;;42.30;;
11970;SDS011;6045;42.682;23.294;2023-12-20T14:41:39;85.17;;;40.33;;
11970;SDS011;6045;42.682;23.294;2023-12-20T14:44:07;99.67;;;42.53;;
11970;SDS011;6045;42.682;23.294;2023-12-20T14:46:34;96.23;;;41.60;;
11970;SDS011;6045;42.682;23.294;2023-12-20T14:49:01;102.70;;;43.97;;
11970;SDS011;6045;42.682;23.294;2023-12-20T14:51:29;97.27;;;41.03;;
11970;SDS011;6045;42.682;23.294;2023-12-20T14:53:56;100.70;;;43.07;;
11970;SDS011;6045;42.682;23.294;2023-12-20T14:56:24;106.73;;;42.13;;
11970;SDS011;6045;42.682;23.294;2023-12-20T14:58:51;98.17;;;44.77;;
11970;SDS011;6045;42.682;23.294;2023-12-20T15:01:18;109.43;;;44.77;;
11970;SDS011;6045;42.682;23.294;2023-12-20T15:03:46;111.17;;;47.67;;
11970;SDS011;6045;42.682;23.294;2023-12-20T15:06:13;134.13;;;51.23;;
11970;SDS011;6045;42.682;23.294;2023-12-20T15:08:42;132.80;;;53.83;;
11970;SDS011;6045;42.682;23.294;2023-12-20T15:11:08;137.80;;;55.50;;
11970;SDS011;6045;42.682;23.294;2023-12-20T15:13:35;135.73;;;52.13;;
11970;SDS011;6045;42.682;23.294;2023-12-20T15:16:02;139.33;;;58.10;;
11970;SDS011;6045;42.682;23.294;2023-12-20T15:18:30;152.60;;;58.93;;
11970;SDS011;6045;42.682;23.294;2023-12-20T15:20:57;168.90;;;66.10;;
11970;SDS011;6045;42.682;23.294;2023-12-20T15:23:25;149.20;;;62.80;;
11970;SDS011;6045;42.682;23.294;2023-12-20T15:25:55;146.83;;;60.50;;
11970;SDS011;6045;42.682;23.294;2023-12-20T15:28:22;185.20;;;67.97;;
11970;SDS011;6045;42.682;23.294;2023-12-20T15:30:49;161.70;;;64.20;;